Spalding, Minnesota
Current Conditions -  °F | °C
As of 12:27 AM on Friday 19 Dec 2014 (Local Time) from KHZX Reporting Station
Overcast Overcast  
Wind Chill: 10°   Ceiling: 600
Heat Index: 19°   Visibility: 10mi
Dew Point: 19°   Wind: 7mph
Humidity: 100%   Direction: 190°S
Pressure: 30.23"   Gusts: NA
Location:  46.7232°N, 93.3159°W
Report Text: KHZX 190627Z AUTO 19006KT 10SM OVC006 M07/M07 A3023 RMK AO2
Loading
Personal Weather Stations






























Interactive Weather Map New forecast layout! Learn more

10-Day Weather Forecast

Advertisements
Track Severe Weather on mobile